Time;durP1;ratioP1;P1;durP2;ratioP2;P2;SDS_P1;SDS_P2;PMS_P1;PMS_P2;Temp;Humidity;BMP_temperature;BMP_pressure;BME280_temperature;BME280_humidity;BME280_pressure;Samples;Min_cycle;Max_cycle;Signal;HPM_P1;HPM_P2
2024/01/21 00:01:46;;;;;;;22.07;9.33;;;;;;;-15.52;100.00;99726.44;6105250;19;20002;-72
2024/01/21 00:03:46;;;;;;;21.58;9.07;;;;;;;-15.53;100.00;99729.28;6104313;19;20002;-72
2024/01/21 00:05:47;;;;;;;17.83;8.63;;;;;;;-15.48;100.00;99711.81;6103502;19;20531;-72
2024/01/21 00:07:47;;;;;;;20.40;8.43;;;;;;;-15.47;100.00;99721.44;6104404;19;20732;-72
2024/01/21 00:09:48;;;;;;;15.02;8.27;;;;;;;-15.44;100.00;99714.94;6104699;19;20007;-72
2024/01/21 00:11:48;;;;;;;18.50;9.18;;;;;;;-15.44;100.00;99707.81;6104215;19;20113;-72
2024/01/21 00:13:48;;;;;;;32.15;12.85;;;;;;;-15.29;100.00;99702.53;6104930;19;20003;-71
2024/01/21 00:15:48;;;;;;;33.47;14.60;;;;;;;-15.28;100.00;99698.84;6102700;19;20058;-71
2024/01/21 00:17:49;;;;;;;36.38;15.30;;;;;;;-15.27;100.00;99691.72;6104768;19;20081;-72
2024/01/21 00:19:49;;;;;;;36.97;17.00;;;;;;;-15.25;100.00;99703.78;6104649;19;19998;-71
2024/01/21 00:21:49;;;;;;;20.23;11.68;;;;;;;-15.27;100.00;99692.53;6104203;19;20023;-72
2024/01/21 00:23:50;;;;;;;21.25;10.07;;;;;;;-15.31;100.00;99684.09;6104774;19;20368;-71
2024/01/21 00:25:50;;;;;;;23.75;10.82;;;;;;;-15.41;100.00;99693.34;6102193;19;20003;-71
2024/01/21 00:27:50;;;;;;;23.52;10.30;;;;;;;-15.48;100.00;99697.72;6104398;19;20443;-72
2024/01/21 00:29:51;;;;;;;21.90;8.93;;;;;;;-15.52;100.00;99699.91;6104037;19;20505;-71
2024/01/21 00:31:51;;;;;;;21.35;10.00;;;;;;;-15.64;100.00;99696.06;6104017;19;20514;-72
2024/01/21 00:33:51;;;;;;;22.67;11.45;;;;;;;-15.66;100.00;99711.34;6104476;19;20007;-72
2024/01/21 00:35:51;;;;;;;21.95;9.20;;;;;;;-15.77;100.00;99698.53;6103225;19;19999;-72
2024/01/21 00:37:52;;;;;;;24.30;9.57;;;;;;;-15.78;100.00;99697.72;6102674;19;20006;-72
2024/01/21 00:39:52;;;;;;;20.17;10.10;;;;;;;-15.74;100.00;99703.47;6104576;19;20220;-71
2024/01/21 00:41:53;;;;;;;23.50;9.90;;;;;;;-15.88;100.00;99691.84;6103295;19;20017;-71
2024/01/21 00:43:53;;;;;;;26.10;11.45;;;;;;;-15.90;100.00;99688.50;6104106;19;20024;-71
2024/01/21 00:45:54;;;;;;;22.88;11.40;;;;;;;-15.99;100.00;99697.53;6102130;19;20014;-71
2024/01/21 00:47:54;;;;;;;24.15;9.88;;;;;;;-16.01;100.00;99697.72;6103981;19;20002;-71
2024/01/21 00:49:55;;;;;;;20.35;8.18;;;;;;;-15.91;100.00;99693.00;6110609;19;20002;-70
2024/01/21 00:51:58;;;;;;;12.68;7.60;;;;;;;-15.82;100.00;99691.09;6110461;19;20002;-70
2024/01/21 00:53:58;;;;;;;18.00;8.15;;;;;;;-15.80;100.00;99686.47;6110342;19;19998;-71
2024/01/21 00:55:59;;;;;;;16.98;9.35;;;;;;;-15.80;100.00;99688.25;6107454;19;20478;-71
2024/01/21 00:57:59;;;;;;;18.65;9.13;;;;;;;-15.88;100.00;99689.19;6109847;19;20022;-71
2024/01/21 00:59:59;;;;;;;20.95;10.45;;;;;;;-15.89;100.00;99690.97;6109965;19;19998;-71
2024/01/21 01:01:59;;;;;;;23.25;9.63;;;;;;;-15.86;100.00;99681.03;6110502;19;20122;-72
2024/01/21 01:04:00;;;;;;;18.38;7.95;;;;;;;-15.87;100.00;99676.75;6110134;19;20066;-70
2024/01/21 01:06:00;;;;;;;17.20;8.77;;;;;;;-15.97;100.00;99669.00;6108233;19;20003;-70
2024/01/21 01:08:00;;;;;;;14.55;8.30;;;;;;;-15.98;100.00;99670.84;6110324;19;20406;-71
2024/01/21 01:10:01;;;;;;;15.10;7.90;;;;;;;-16.05;100.00;99661.97;6108957;19;20003;-70
2024/01/21 01:12:01;;;;;;;17.35;8.82;;;;;;;-16.01;100.00;99660.59;6109338;19;19998;-71
2024/01/21 01:14:02;;;;;;;17.70;8.25;;;;;;;-15.91;100.00;99655.88;6109646;19;19990;-72
2024/01/21 01:16:03;;;;;;;20.85;8.38;;;;;;;-15.80;100.00;99651.13;6108962;19;19998;-71
2024/01/21 01:18:03;;;;;;;14.77;9.13;;;;;;;-15.60;100.00;99639.81;6109728;19;20491;-71
2024/01/21 01:20:05;;;;;;;21.70;7.95;;;;;;;-15.50;100.00;99650.13;6108808;19;20375;-72
2024/01/21 01:22:06;;;;;;;17.38;8.32;;;;;;;-15.41;100.00;99643.75;6110268;19;20090;-71
2024/01/21 01:24:06;;;;;;;12.02;7.38;;;;;;;-15.38;100.00;99650.53;6108502;19;20068;-71
2024/01/21 01:26:07;;;;;;;15.90;8.63;;;;;;;-15.39;100.00;99660.31;6108067;19;19994;-71
2024/01/21 01:28:07;;;;;;;15.02;7.25;;;;;;;-15.39;100.00;99662.13;6109672;19;19994;-71
2024/01/21 01:30:08;;;;;;;16.25;8.65;;;;;;;-15.38;100.00;99659.31;6109929;19;19998;-71
2024/01/21 01:32:09;;;;;;;18.63;8.80;;;;;;;-15.33;100.00;99642.81;6108128;19;20324;-71
2024/01/21 01:34:10;;;;;;;16.65;7.85;;;;;;;-15.39;100.00;99628.47;6108939;19;20575;-71
2024/01/21 01:36:11;;;;;;;19.75;8.23;;;;;;;-15.34;100.00;99636.69;6108993;19;20006;-71
2024/01/21 01:38:13;;;;;;;22.02;9.13;;;;;;;-15.37;100.00;99638.91;6108116;19;19998;-71
2024/01/21 01:40:17;;;;;;;19.73;8.77;;;;;;;-15.37;100.00;99647.69;6108646;19;20002;-71
2024/01/21 01:42:18;;;;;;;16.13;8.00;;;;;;;-15.50;100.00;99636.06;6108823;19;20006;-71
2024/01/21 01:44:18;;;;;;;17.65;7.63;;;;;;;-15.49;100.00;99643.81;6109703;19;20610;-71
2024/01/21 01:46:19;;;;;;;15.77;7.95;;;;;;;-15.60;100.00;99654.91;6106880;19;19999;-71
2024/01/21 01:48:20;;;;;;;15.93;9.02;;;;;;;-15.59;100.00;99645.94;6108549;19;20466;-71
2024/01/21 01:50:21;;;;;;;18.80;9.10;;;;;;;-15.55;100.00;99644.56;6108609;19;20453;-71
2024/01/21 01:52:22;;;;;;;14.00;7.22;;;;;;;-15.56;100.00;99644.72;6109732;19;20082;-71
2024/01/21 01:54:23;;;;;;;16.70;7.50;;;;;;;-15.49;100.00;99635.88;6108607;19;20022;-71
2024/01/21 01:56:24;;;;;;;17.17;8.32;;;;;;;-15.42;100.00;99641.28;6108020;19;20025;-71
2024/01/21 01:58:27;;;;;;;20.70;9.15;;;;;;;-15.44;100.00;99630.03;6109904;19;20093;-71
2024/01/21 02:00:29;;;;;;;17.80;8.60;;;;;;;-15.45;100.00;99639.81;6108966;19;20528;-71
2024/01/21 02:02:29;;;;;;;18.27;7.13;;;;;;;-15.39;100.00;99623.16;6109901;19;20066;-71
2024/01/21 02:04:30;;;;;;;17.20;8.07;;;;;;;-15.31;100.00;99614.25;6107506;19;20500;-71
2024/01/21 02:06:30;;;;;;;15.25;8.50;;;;;;;-15.35;100.00;99613.00;6109920;19;20899;-71
2024/01/21 02:08:31;;;;;;;14.30;7.95;;;;;;;-15.33;100.00;99608.31;6108587;19;20345;-71
2024/01/21 02:10:31;;;;;;;18.33;8.70;;;;;;;-15.16;100.00;99601.81;6108761;19;20010;-71
2024/01/21 02:12:31;;;;;;;17.50;8.13;;;;;;;-14.93;100.00;99611.47;6109207;19;20114;-71
2024/01/21 02:14:32;;;;;;;17.05;8.82;;;;;;;-14.84;100.00;99610.38;6108158;19;20009;-71
2024/01/21 02:16:32;;;;;;;15.60;8.00;;;;;;;-14.78;100.00;99605.13;6107915;19;20015;-71
2024/01/21 02:18:35;;;;;;;14.13;7.43;;;;;;;-14.75;100.00;99606.59;6108368;19;20050;-71
2024/01/21 02:20:36;;;;;;;16.65;8.60;;;;;;;-14.72;100.00;99606.22;6109551;19;20030;-71
2024/01/21 02:22:39;;;;;;;14.38;7.47;;;;;;;-14.63;100.00;99601.63;6108797;19;20074;-71
2024/01/21 02:24:40;;;;;;;15.32;7.35;;;;;;;-14.60;100.00;99594.06;6107067;19;20470;-71
2024/01/21 02:26:40;;;;;;;15.68;7.78;;;;;;;-14.52;100.00;99582.50;6109237;19;20306;-71
2024/01/21 02:28:40;;;;;;;16.90;8.45;;;;;;;-14.40;100.00;99580.94;6108092;19;20113;-71
2024/01/21 02:30:42;;;;;;;18.10;8.40;;;;;;;-14.40;100.00;99567.66;6108548;19;20420;-71
2024/01/21 02:32:42;;;;;;;12.55;6.68;;;;;;;-14.35;100.00;99575.88;6106934;19;20006;-71
2024/01/21 02:34:42;;;;;;;17.10;7.85;;;;;;;-14.39;100.00;99568.50;6107546;19;20002;-71
2024/01/21 02:36:43;;;;;;;16.67;7.68;;;;;;;-14.38;100.00;99572.81;6107873;19;20340;-71
2024/01/21 02:38:43;;;;;;;14.75;8.45;;;;;;;-14.38;100.00;99570.97;6106399;19;20039;-71
2024/01/21 02:40:43;;;;;;;15.48;7.85;;;;;;;-14.40;100.00;99570.31;6108494;19;20011;-71
2024/01/21 02:42:44;;;;;;;21.98;7.72;;;;;;;-14.43;100.00;99552.09;6108686;19;20321;-71
2024/01/21 02:44:44;;;;;;;15.07;7.65;;;;;;;-14.38;100.00;99543.56;6106395;19;20086;-71
2024/01/21 02:46:44;;;;;;;16.95;7.38;;;;;;;-14.40;100.00;99535.75;6108202;19;20458;-71
2024/01/21 02:48:45;;;;;;;17.70;8.68;;;;;;;-14.38;100.00;99525.78;6108208;19;20007;-71
2024/01/21 02:50:45;;;;;;;19.05;8.65;;;;;;;-14.36;100.00;99530.91;6108158;19;20357;-71
2024/01/21 02:52:45;;;;;;;22.98;9.02;;;;;;;-14.35;100.00;99520.06;6106862;19;20010;-71
2024/01/21 02:54:45;;;;;;;17.02;8.30;;;;;;;-14.41;100.00;99515.50;6107802;19;20521;-71
2024/01/21 02:56:46;;;;;;;23.25;10.23;;;;;;;-14.38;100.00;99511.66;6105306;19;20010;-71
2024/01/21 02:58:47;;;;;;;21.33;9.20;;;;;;;-14.29;100.00;99502.53;6107387;19;20052;-71
2024/01/21 03:00:47;;;;;;;18.52;8.70;;;;;;;-14.24;100.00;99495.59;6108676;19;20034;-71
2024/01/21 03:02:49;;;;;;;19.40;8.82;;;;;;;-14.21;100.00;99500.56;6107379;19;20007;-71
2024/01/21 03:04:49;;;;;;;;;;;;;;;-14.31;100.00;99508.03;6107372;19;20482;-71
2024/01/21 03:06:50;;;;;;;16.83;8.05;;;;;;;-14.35;100.00;99508.59;6107655;19;19974;-71
2024/01/21 03:08:51;;;;;;;13.05;7.70;;;;;;;-14.40;100.00;99505.69;6107396;19;20061;-71
2024/01/21 03:10:51;;;;;;;15.32;8.77;;;;;;;-14.41;100.00;99498.75;6105955;19;20015;-71
2024/01/21 03:12:51;;;;;;;20.02;8.90;;;;;;;-14.42;100.00;99497.09;6108312;19;20317;-71
2024/01/21 03:14:51;;;;;;;17.55;7.53;;;;;;;-14.37;100.00;99500.00;6107680;19;20734;-71
2024/01/21 03:16:52;;;;;;;20.23;9.20;;;;;;;-14.40;100.00;99506.50;6107824;19;20006;-71
2024/01/21 03:18:52;;;;;;;14.88;8.68;;;;;;;-14.48;100.00;99504.03;6107746;19;20010;-71
2024/01/21 03:20:52;;;;;;;17.15;8.05;;;;;;;-14.49;100.00;99502.38;6107365;19;20364;-71
2024/01/21 03:22:53;;;;;;;18.55;9.35;;;;;;;-14.59;100.00;99508.03;6107993;19;20003;-71
2024/01/21 03:24:53;;;;;;;20.92;10.38;;;;;;;-14.72;100.00;99504.44;6106201;19;20475;-70
2024/01/21 03:26:53;;;;;;;16.52;8.45;;;;;;;-14.76;100.00;99501.34;6107566;19;20070;-71
2024/01/21 03:28:54;;;;;;;16.55;7.57;;;;;;;-14.89;100.00;99501.19;6108008;19;20479;-71
2024/01/21 03:30:54;;;;;;;17.65;7.55;;;;;;;-14.84;100.00;99496.97;6107926;19;20477;-71
2024/01/21 03:32:54;;;;;;;16.15;7.88;;;;;;;-14.89;100.00;99496.72;6107605;19;20021;-71
2024/01/21 03:34:55;;;;;;;18.05;7.18;;;;;;;-14.82;100.00;99491.47;6105847;19;20005;-71
2024/01/21 03:36:55;;;;;;;19.00;8.68;;;;;;;-14.89;100.00;99495.88;6106172;19;20018;-71
2024/01/21 03:38:55;;;;;;;13.07;7.88;;;;;;;-14.93;100.00;99495.44;6106912;19;20011;-71
2024/01/21 03:40:56;;;;;;;13.40;6.78;;;;;;;-14.98;100.00;99495.19;6108440;19;20266;-71
2024/01/21 03:42:56;;;;;;;14.45;6.00;;;;;;;-15.00;100.00;99504.34;6107373;19;20007;-71
2024/01/21 03:44:56;;;;;;;15.50;7.80;;;;;;;-15.22;100.00;99501.69;6105626;19;20348;-71
2024/01/21 03:46:57;;;;;;;13.27;7.78;;;;;;;-15.18;100.00;99494.16;6107649;19;20459;-71
2024/01/21 03:48:57;;;;;;;16.27;7.65;;;;;;;-15.26;100.00;99495.09;6098796;19;20003;-71
2024/01/21 03:50:58;;;;;;;20.77;7.75;;;;;;;-15.26;100.00;99488.97;6106389;19;20399;-71
2024/01/21 03:52:59;;;;;;;17.52;7.50;;;;;;;-15.24;100.00;99489.59;6107865;19;20040;-71
2024/01/21 03:54:59;;;;;;;35.30;14.10;;;;;;;-15.23;100.00;99494.72;6106316;19;20442;-71
2024/01/21 03:56:59;;;;;;;21.25;10.50;;;;;;;-15.17;100.00;99486.00;6106571;19;20352;-71
2024/01/21 03:59:00;;;;;;;20.75;9.93;;;;;;;-15.14;100.00;99482.16;6106521;19;20015;-71
2024/01/21 04:01:03;;;;;;;24.27;12.05;;;;;;;-15.15;100.00;99489.28;6107149;19;20374;-71
2024/01/21 04:03:04;;;;;;;18.23;8.40;;;;;;;-15.20;100.00;99477.63;6106706;19;20023;-71
2024/01/21 04:05:05;;;;;;;15.40;7.82;;;;;;;-15.38;100.00;99484.16;6103056;19;20361;-71
2024/01/21 04:07:05;;;;;;;21.33;9.00;;;;;;;-15.39;100.00;99479.88;6104442;19;20015;-71
2024/01/21 04:09:05;;;;;;;20.77;8.70;;;;;;;-15.40;100.00;99478.19;6110607;19;20050;-71
2024/01/21 04:11:06;;;;;;;22.67;11.32;;;;;;;-15.44;100.00;99478.78;6112309;19;20028;-71
2024/01/21 04:13:06;;;;;;;28.17;11.15;;;;;;;-15.43;100.00;99472.44;6112633;19;20039;-71
2024/01/21 04:15:07;;;;;;;21.98;10.18;;;;;;;-15.45;100.00;99471.81;6110984;19;20043;-71
2024/01/21 04:17:09;;;;;;;25.15;10.85;;;;;;;-15.43;100.00;99465.31;6112807;19;20343;-71
2024/01/21 04:19:09;;;;;;;33.55;13.10;;;;;;;-15.40;100.00;99458.78;6111144;19;20021;-71
2024/01/21 04:21:10;;;;;;;21.25;11.05;;;;;;;-15.27;100.00;99455.47;6112210;19;20010;-71
2024/01/21 04:23:10;;;;;;;23.58;10.13;;;;;;;-15.26;100.00;99460.59;6112198;19;20021;-71
2024/01/21 04:25:10;;;;;;;19.52;9.60;;;;;;;-15.23;100.00;99462.88;6110353;19;20007;-71
2024/01/21 04:27:11;;;;;;;18.15;7.95;;;;;;;-15.25;100.00;99454.28;6110961;19;20006;-71
2024/01/21 04:29:11;;;;;;;19.17;9.10;;;;;;;-15.21;100.00;99460.03;6112724;19;20455;-71
2024/01/21 04:31:11;;;;;;;20.35;8.75;;;;;;;-15.14;100.00;99448.47;6111735;19;20025;-71
2024/01/21 04:33:11;;;;;;;17.38;8.75;;;;;;;-15.05;100.00;99443.88;6110041;19;20605;-71
2024/01/21 04:35:12;;;;;;;19.00;9.38;;;;;;;-14.98;100.00;99454.53;6109699;19;20014;-71
2024/01/21 04:37:12;;;;;;;12.80;7.20;;;;;;;-14.84;100.00;99446.50;6111793;19;20503;-71
2024/01/21 04:39:17;;;;;;;15.65;8.80;;;;;;;-14.71;100.00;99440.50;6111153;19;20651;-71
2024/01/21 04:41:17;;;;;;;20.95;9.32;;;;;;;-14.62;100.00;99425.22;6111513;19;20078;-71
2024/01/21 04:43:18;;;;;;;20.60;8.30;;;;;;;-14.37;100.00;99422.94;6110985;19;20007;-71
2024/01/21 04:45:19;;;;;;;12.15;6.45;;;;;;;-14.27;100.00;99426.06;6110556;19;20009;-71
2024/01/21 04:47:19;;;;;;;17.95;7.45;;;;;;;-14.19;100.00;99424.06;6109917;19;20007;-71
2024/01/21 04:49:19;;;;;;;14.68;8.18;;;;;;;-14.02;100.00;99419.25;6104185;19;20003;-71
2024/01/21 04:51:20;;;;;;;23.40;7.72;;;;;;;-13.91;100.00;99426.66;6104358;19;20003;-71
2024/01/21 04:53:20;;;;;;;31.40;10.50;;;;;;;-13.87;100.00;99419.13;6103626;19;20007;-71
2024/01/21 04:55:20;;;;;;;31.60;10.40;;;;;;;-13.86;100.00;99423.41;6103368;19;20491;-71
2024/01/21 04:57:21;;;;;;;22.90;10.43;;;;;;;-13.85;100.00;99419.72;6104458;19;20243;-71
2024/01/21 04:59:21;;;;;;;27.17;9.27;;;;;;;-13.81;100.00;99420.19;6103947;19;20010;-71
2024/01/21 05:01:22;;;;;;;17.20;8.68;;;;;;;-13.85;100.00;99411.75;6103915;19;20027;-70
2024/01/21 05:03:23;;;;;;;22.03;8.60;;;;;;;-13.84;100.00;99407.25;6103473;19;19998;-71
2024/01/21 05:05:23;;;;;;;22.17;9.20;;;;;;;-13.88;100.00;99403.34;6102810;19;21045;-71
2024/01/21 05:07:23;;;;;;;25.05;8.85;;;;;;;-13.92;100.00;99385.13;6104285;19;19998;-71
2024/01/21 05:09:24;;;;;;;17.88;7.28;;;;;;;-13.88;100.00;99385.56;6103730;19;20009;-71
2024/01/21 05:11:24;;;;;;;17.92;7.40;;;;;;;-13.94;100.00;99397.81;6104516;19;20929;-71
2024/01/21 05:13:24;;;;;;;19.70;7.82;;;;;;;-13.97;100.00;99394.72;6103222;19;20007;-71
2024/01/21 05:15:25;;;;;;;13.20;6.80;;;;;;;-14.02;100.00;99383.84;6102852;19;20010;-71
2024/01/21 05:17:25;;;;;;;17.35;6.97;;;;;;;-14.03;100.00;99392.84;6103418;19;20003;-71
2024/01/21 05:19:25;;;;;;;13.25;5.85;;;;;;;-14.13;100.00;99387.06;6100135;19;20074;-71
2024/01/21 05:21:25;;;;;;;14.23;6.00;;;;;;;-14.11;100.00;99379.72;6102748;19;20113;-71
2024/01/21 05:23:26;;;;;;;15.93;7.20;;;;;;;-14.18;100.00;99391.13;6103944;19;20074;-70
2024/01/21 05:25:26;;;;;;;13.05;5.95;;;;;;;-14.30;100.00;99382.06;6101646;19;20465;-71
2024/01/21 05:27:26;;;;;;;11.98;6.60;;;;;;;-14.32;100.00;99388.59;6103825;19;20007;-71
2024/01/21 05:29:27;;;;;;;12.48;5.97;;;;;;;-14.31;100.00;99391.06;6103199;19;20393;-71
2024/01/21 05:31:31;;;;;;;15.32;6.20;;;;;;;-14.38;100.00;99384.06;6103427;19;20502;-71
2024/01/21 05:33:32;;;;;;;13.95;6.47;;;;;;;-14.40;100.00;99394.06;6103352;19;20009;-71
2024/01/21 05:35:32;;;;;;;12.48;6.07;;;;;;;-14.39;100.00;99388.56;6102040;19;20518;-71
2024/01/21 05:37:32;;;;;;;8.60;5.20;;;;;;;-14.36;100.00;99382.03;6102114;19;19998;-71
2024/01/21 05:39:33;;;;;;;11.85;6.18;;;;;;;-14.36;100.00;99377.53;6102224;19;20003;-71
2024/01/21 05:41:35;;;;;;;14.27;4.63;;;;;;;-14.37;100.00;99388.38;6103535;19;19998;-70
2024/01/21 05:43:35;;;;;;;9.45;5.32;;;;;;;-14.31;100.00;99383.09;6103671;19;19998;-71
2024/01/21 05:45:35;;;;;;;8.95;5.20;;;;;;;-14.34;100.00;99386.13;6102171;19;20575;-71
2024/01/21 05:47:36;;;;;;;11.05;3.97;;;;;;;-14.29;100.00;99388.22;6102868;19;20023;-71
2024/01/21 05:49:36;;;;;;;8.20;4.55;;;;;;;-14.28;100.00;99382.69;6110444;19;20003;-71
2024/01/21 05:51:36;;;;;;;6.00;3.92;;;;;;;-14.26;100.00;99385.97;6111199;19;20011;-71
2024/01/21 05:53:39;;;;;;;12.93;5.05;;;;;;;-14.24;100.00;99388.44;6107797;19;20007;-71
2024/01/21 05:55:39;;;;;;;9.93;3.95;;;;;;;-14.17;100.00;99384.78;6109098;19;20010;-71
2024/01/21 05:57:40;;;;;;;8.30;3.63;;;;;;;-14.13;100.00;99379.09;6109858;19;20023;-71
2024/01/21 05:59:40;;;;;;;13.40;5.68;;;;;;;-14.11;100.00;99385.03;6110533;19;20013;-71
2024/01/21 06:01:40;;;;;;;17.35;6.95;;;;;;;-14.10;100.00;99392.00;6109774;19;20459;-71
2024/01/21 06:03:41;;;;;;;14.50;5.03;;;;;;;-14.05;100.00;99385.06;6110266;19;20036;-71
2024/01/21 06:05:41;;;;;;;10.98;5.03;;;;;;;-14.00;100.00;99392.44;6108529;19;20432;-71
2024/01/21 06:07:41;;;;;;;14.93;6.22;;;;;;;-14.01;100.00;99391.63;6110248;19;20006;-70
2024/01/21 06:09:42;;;;;;;13.90;5.95;;;;;;;-14.02;100.00;99381.19;6108928;19;20011;-71
2024/01/21 06:11:44;;;;;;;13.43;5.93;;;;;;;-14.03;100.00;99383.03;6107090;19;20024;-71
2024/01/21 06:13:44;;;;;;;;;;;;;;;-13.97;100.00;99376.94;6109029;19;20006;-71
2024/01/21 06:15:45;;;;;;;8.45;4.78;;;;;;;-13.89;100.00;99381.25;6107966;19;19931;-71
2024/01/21 06:17:45;;;;;;;11.25;4.82;;;;;;;-13.88;100.00;99380.22;6108575;19;20619;-71
2024/01/21 06:19:46;;;;;;;11.07;5.45;;;;;;;-13.81;100.00;99381.09;6109854;19;20010;-70
2024/01/21 06:21:46;;;;;;;13.27;5.65;;;;;;;-13.79;100.00;99380.88;6107932;19;20379;-70
2024/01/21 06:23:46;;;;;;;14.73;6.57;;;;;;;-13.71;100.00;99378.03;6108271;19;20116;-70
2024/01/21 06:25:47;;;;;;;17.90;8.05;;;;;;;-13.69;100.00;99376.81;6107843;19;20364;-71
2024/01/21 06:27:47;;;;;;;17.80;8.30;;;;;;;-13.59;100.00;99376.44;6108928;19;20010;-71
2024/01/21 06:29:47;;;;;;;12.18;6.10;;;;;;;-13.28;100.00;99365.25;6105912;19;20006;-71
2024/01/21 06:31:48;;;;;;;12.38;6.22;;;;;;;-13.11;100.00;99355.81;6108149;19;20394;-71
2024/01/21 06:33:48;;;;;;;8.88;5.55;;;;;;;-12.89;100.00;99363.63;6109038;19;20446;-71
2024/01/21 06:35:48;;;;;;;12.95;5.60;;;;;;;-12.70;100.00;99353.97;6107890;19;20656;-71
2024/01/21 06:37:49;;;;;;;13.75;5.32;;;;;;;-12.29;100.00;99351.84;6108153;19;20010;-71
2024/01/21 06:39:49;;;;;;;3.67;2.22;;;;;;;-11.46;100.00;99345.72;6109380;19;20676;-71
2024/01/21 06:41:49;;;;;;;4.30;2.80;;;;;;;-10.32;100.00;99345.41;6108226;19;19999;-71
2024/01/21 06:43:50;;;;;;;5.53;2.70;;;;;;;-9.67;100.00;99353.69;6107681;19;19999;-71
2024/01/21 06:45:50;;;;;;;2.85;1.75;;;;;;;-9.41;100.00;99357.06;6108071;19;20591;-71
2024/01/21 06:47:50;;;;;;;2.83;1.52;;;;;;;-9.27;100.00;99360.38;6106129;19;20006;-71
2024/01/21 06:49:51;;;;;;;4.38;1.40;;;;;;;-9.20;100.00;99355.72;6107478;19;19999;-70
2024/01/21 06:51:54;;;;;;;3.13;1.55;;;;;;;-9.01;100.00;99359.19;6108927;19;20010;-71
2024/01/21 06:53:54;;;;;;;3.65;1.52;;;;;;;-8.26;100.00;99345.91;6109617;19;20009;-71
2024/01/21 06:55:55;;;;;;;1.15;1.00;;;;;;;-7.84;100.00;99340.38;6107393;19;19999;-71
2024/01/21 06:57:55;;;;;;;1.83;1.02;;;;;;;-7.46;100.00;99337.88;6109139;19;20483;-71
2024/01/21 06:59:55;;;;;;;2.13;1.30;;;;;;;-7.38;100.00;99340.19;6108783;19;20024;-71
2024/01/21 07:01:55;;;;;;;1.30;0.98;;;;;;;-7.28;100.00;99336.06;6109271;19;20017;-71
2024/01/21 07:03:56;;;;;;;1.55;1.02;;;;;;;-7.23;100.00;99328.09;6107827;19;20016;-71
2024/01/21 07:05:56;;;;;;;2.80;1.67;;;;;;;-7.10;100.00;99328.63;6107235;19;19999;-71
2024/01/21 07:07:56;;;;;;;2.45;1.25;;;;;;;-7.17;100.00;99332.53;6106404;19;20332;-71
2024/01/21 07:09:57;;;;;;;2.55;1.30;;;;;;;-6.79;100.00;99347.94;6106525;19;20006;-71
2024/01/21 07:11:57;;;;;;;3.30;1.20;;;;;;;-6.58;100.00;99344.53;6106025;19;20029;-71
2024/01/21 07:13:57;;;;;;;2.05;1.30;;;;;;;-6.48;100.00;99335.00;6107413;19;20405;-71
2024/01/21 07:15:58;;;;;;;2.00;1.58;;;;;;;-6.47;100.00;99331.22;6105945;19;20584;-71
2024/01/21 07:17:58;;;;;;;2.95;1.75;;;;;;;-6.38;100.00;99344.03;6106891;19;20013;-71
2024/01/21 07:19:58;;;;;;;3.25;1.70;;;;;;;-6.32;100.00;99334.16;6107544;19;20026;-70
2024/01/21 07:21:59;;;;;;;4.65;2.63;;;;;;;-6.15;100.00;99326.84;6107190;19;20566;-71
2024/01/21 07:23:59;;;;;;;5.82;2.30;;;;;;;-6.00;100.00;99315.47;6106422;19;20003;-71
2024/01/21 07:25:59;;;;;;;4.43;1.45;;;;;;;-5.94;100.00;99319.88;6107120;19;20018;-70
2024/01/21 07:28:00;;;;;;;3.15;1.58;;;;;;;-6.00;100.00;99297.44;6103392;19;20007;-70
2024/01/21 07:30:00;;;;;;;1.50;1.13;;;;;;;-5.88;100.00;99307.22;6106675;19;20335;-71
2024/01/21 07:32:00;;;;;;;2.67;1.30;;;;;;;-5.79;100.00;99284.16;6106719;19;20010;-71
2024/01/21 07:34:01;;;;;;;1.95;1.15;;;;;;;-5.74;100.00;99295.81;6106183;19;20033;-71
2024/01/21 07:36:04;;;;;;;3.28;1.33;;;;;;;-5.65;100.00;99299.69;6105526;19;20392;-71
2024/01/21 07:38:04;;;;;;;1.60;1.10;;;;;;;-5.54;100.00;99297.16;6104979;19;20012;-71
2024/01/21 07:40:06;;;;;;;2.15;1.10;;;;;;;-5.53;100.00;99296.06;6107357;19;19994;-71
2024/01/21 07:42:06;;;;;;;1.40;1.10;;;;;;;-5.46;100.00;99281.31;6105963;19;20024;-71
2024/01/21 07:44:07;;;;;;;2.45;1.67;;;;;;;-5.46;100.00;99288.56;6109663;19;20021;-71
2024/01/21 07:46:07;;;;;;;4.28;1.73;;;;;;;-5.33;100.00;99311.63;6111697;19;20573;-71
2024/01/21 07:48:08;;;;;;;1.80;1.48;;;;;;;-5.37;100.00;99320.25;6112279;19;20006;-71
2024/01/21 07:50:09;;;;;;;2.50;1.40;;;;;;;-5.26;100.00;99306.88;6111815;19;20333;-71
2024/01/21 07:52:10;;;;;;;3.53;2.13;;;;;;;-5.04;100.00;99301.41;6110263;19;19998;-71
2024/01/21 07:54:10;;;;;;;3.05;2.25;;;;;;;-4.88;100.00;99311.25;6112962;19;20011;-71
2024/01/21 07:56:10;;;;;;;3.08;1.77;;;;;;;-4.74;100.00;99300.84;6110462;19;20336;-72
2024/01/21 07:58:12;;;;;;;3.40;1.90;;;;;;;-4.73;100.00;99299.78;6111296;19;20070;-72
2024/01/21 08:00:13;;;;;;;4.70;3.40;;;;;;;-4.61;100.00;99300.41;6111746;19;19998;-72
2024/01/21 08:02:14;;;;;;;5.40;3.75;;;;;;;-4.50;100.00;99291.31;6112309;19;20002;-72
2024/01/21 08:04:14;;;;;;;8.32;2.88;;;;;;;-4.48;100.00;99285.63;6111570;19;20016;-71
2024/01/21 08:06:14;;;;;;;5.35;2.95;;;;;;;-4.43;100.00;99282.97;6110061;19;20003;-71
2024/01/21 08:08:15;;;;;;;11.63;4.78;;;;;;;-4.48;100.00;99264.03;6111276;19;20482;-71
2024/01/21 08:10:15;;;;;;;13.05;5.20;;;;;;;-4.50;100.00;99263.47;6110801;19;20492;-71
2024/01/21 08:12:15;;;;;;;5.75;3.13;;;;;;;-4.52;100.00;99278.06;6110663;19;20110;-71
2024/01/21 08:14:15;;;;;;;3.55;2.28;;;;;;;-4.42;100.00;99263.00;6112027;19;20044;-72
2024/01/21 08:16:16;;;;;;;3.83;1.90;;;;;;;-4.55;100.00;99253.44;6110968;19;19999;-72
2024/01/21 08:18:18;;;;;;;1.85;1.27;;;;;;;-4.41;100.00;99275.44;6111229;19;20002;-72
2024/01/21 08:20:19;;;;;;;2.20;1.50;;;;;;;-4.32;100.00;99281.97;6112585;19;20007;-72
2024/01/21 08:22:19;;;;;;;2.88;1.65;;;;;;;-4.25;100.00;99277.94;6111612;19;20011;-71
2024/01/21 08:24:20;;;;;;;2.22;1.30;;;;;;;-4.10;97.94;99282.63;6112291;19;20082;-71
2024/01/21 08:26:20;;;;;;;2.10;1.20;;;;;;;-3.90;99.42;99278.38;6110406;19;20026;-71
2024/01/21 08:28:20;;;;;;;2.17;1.30;;;;;;;-3.85;99.08;99281.13;6110671;19;20380;-71
2024/01/21 08:30:21;;;;;;;3.00;1.20;;;;;;;-3.68;91.38;99268.22;6110954;19;20023;-71
2024/01/21 08:32:21;;;;;;;4.50;1.52;;;;;;;-3.63;95.44;99267.44;6111841;19;20015;-71
2024/01/21 08:34:22;;;;;;;2.65;1.60;;;;;;;-3.60;100.00;99288.53;6111273;19;20090;-72
2024/01/21 08:36:22;;;;;;;3.03;1.23;;;;;;;-3.61;99.11;99287.72;6110178;19;20006;-72
2024/01/21 08:38:23;;;;;;;2.65;1.70;;;;;;;-3.53;95.23;99281.78;6110809;19;20475;-72
2024/01/21 08:40:23;;;;;;;3.45;2.42;;;;;;;-3.41;98.55;99276.13;6112065;19;20033;-72
2024/01/21 08:42:24;;;;;;;2.83;2.20;;;;;;;-3.39;98.34;99268.56;6111117;19;20421;-72
2024/01/21 08:44:24;;;;;;;2.45;1.63;;;;;;;-3.17;92.76;99263.72;6111525;19;20009;-72
2024/01/21 08:46:25;;;;;;;1.90;1.30;;;;;;;-3.07;89.33;99245.84;6108848;19;19995;-72
2024/01/21 08:48:25;;;;;;;2.47;1.52;;;;;;;-2.93;91.66;99261.31;6103344;19;20226;-72
2024/01/21 08:50:25;;;;;;;2.95;1.23;;;;;;;-2.88;92.57;99246.97;6110336;19;20003;-72
2024/01/21 08:52:26;;;;;;;1.52;1.30;;;;;;;-2.98;97.33;99234.25;6109045;19;20002;-72
2024/01/21 08:54:26;;;;;;;2.03;1.45;;;;;;;-2.94;96.01;99237.19;6109185;19;20347;-72
2024/01/21 08:56:27;;;;;;;5.90;1.77;;;;;;;-2.76;94.93;99235.84;6108489;19;20002;-72
2024/01/21 08:58:27;;;;;;;2.45;1.75;;;;;;;-2.53;87.91;99229.03;6109879;19;20455;-72
2024/01/21 09:00:28;;;;;;;1.73;1.10;;;;;;;-1.94;80.29;99234.56;6109739;19;20002;-72
2024/01/21 09:02:28;;;;;;;1.67;1.15;;;;;;;-1.74;85.18;99239.91;6110935;19;20017;-71
2024/01/21 09:04:28;;;;;;;1.23;0.98;;;;;;;-1.62;84.64;99241.47;6110001;19;20360;-72
2024/01/21 09:06:29;;;;;;;1.38;1.20;;;;;;;-1.28;75.92;99247.78;6108934;19;20010;-72
2024/01/21 09:08:29;;;;;;;3.25;1.48;;;;;;;-1.29;84.70;99239.91;6112446;19;19999;-72
2024/01/21 09:10:30;;;;;;;1.67;1.17;;;;;;;-1.20;83.68;99270.81;6110205;19;20447;-71
2024/01/21 09:12:31;;;;;;;4.45;1.55;;;;;;;-1.08;82.83;99301.13;6109868;19;20022;-72